sensor_id;sensor_type;location;lat;lon;timestamp;temperature;humidity
45323;DHT22;31382;50.200;8.674;2022-08-19T00:04:37;21.30;99.90
45323;DHT22;31382;50.200;8.674;2022-08-19T00:09:39;21.30;99.90
45323;DHT22;31382;50.200;8.674;2022-08-19T00:14:41;21.40;99.90
45323;DHT22;31382;50.200;8.674;2022-08-19T00:19:42;21.30;99.90
45323;DHT22;31382;50.200;8.674;2022-08-19T00:24:45;21.40;99.90
45323;DHT22;31382;50.200;8.674;2022-08-19T00:29:51;21.30;99.90
45323;DHT22;31382;50.200;8.674;2022-08-19T00:34:53;21.30;99.90
45323;DHT22;31382;50.200;8.674;2022-08-19T00:39:55;21.40;99.90
45323;DHT22;31382;50.200;8.674;2022-08-19T00:44:57;21.30;99.90
45323;DHT22;31382;50.200;8.674;2022-08-19T00:49:59;21.40;99.90
45323;DHT22;31382;50.200;8.674;2022-08-19T00:55:02;21.40;99.90
45323;DHT22;31382;50.200;8.674;2022-08-19T01:00:11;21.40;99.90
45323;DHT22;31382;50.200;8.674;2022-08-19T01:05:17;21.40;99.90
45323;DHT22;31382;50.200;8.674;2022-08-19T01:10:26;21.40;99.90
45323;DHT22;31382;50.200;8.674;2022-08-19T01:15:33;21.40;99.90
45323;DHT22;31382;50.200;8.674;2022-08-19T01:20:35;21.40;99.90
45323;DHT22;31382;50.200;8.674;2022-08-19T01:25:49;21.40;99.90
45323;DHT22;31382;50.200;8.674;2022-08-19T01:30:52;21.40;99.90
45323;DHT22;31382;50.200;8.674;2022-08-19T01:36:04;21.40;99.90
45323;DHT22;31382;50.200;8.674;2022-08-19T01:41:06;21.30;99.90
45323;DHT22;31382;50.200;8.674;2022-08-19T01:46:11;21.40;99.90
45323;DHT22;31382;50.200;8.674;2022-08-19T01:51:14;21.30;99.90
45323;DHT22;31382;50.200;8.674;2022-08-19T01:56:16;21.30;99.90
45323;DHT22;31382;50.200;8.674;2022-08-19T02:01:19;21.40;99.90
45323;DHT22;31382;50.200;8.674;2022-08-19T02:06:21;21.30;99.90
45323;DHT22;31382;50.200;8.674;2022-08-19T02:11:29;21.30;99.90
45323;DHT22;31382;50.200;8.674;2022-08-19T02:16:33;21.30;99.90
45323;DHT22;31382;50.200;8.674;2022-08-19T02:21:35;21.20;99.90
45323;DHT22;31382;50.200;8.674;2022-08-19T02:26:37;21.30;99.90
45323;DHT22;31382;50.200;8.674;2022-08-19T02:31:38;21.20;99.90
45323;DHT22;31382;50.200;8.674;2022-08-19T02:36:40;21.20;99.90
45323;DHT22;31382;50.200;8.674;2022-08-19T02:41:43;21.10;99.90
45323;DHT22;31382;50.200;8.674;2022-08-19T02:46:48;21.10;99.90
45323;DHT22;31382;50.200;8.674;2022-08-19T02:51:53;21.10;99.90
45323;DHT22;31382;50.200;8.674;2022-08-19T02:56:55;21.10;99.90
45323;DHT22;31382;50.200;8.674;2022-08-19T03:01:57;21.10;99.90
45323;DHT22;31382;50.200;8.674;2022-08-19T03:06:59;21.10;99.90
45323;DHT22;31382;50.200;8.674;2022-08-19T03:12:11;21.00;99.90
45323;DHT22;31382;50.200;8.674;2022-08-19T03:17:13;21.00;99.90
45323;DHT22;31382;50.200;8.674;2022-08-19T03:22:15;20.90;99.90
45323;DHT22;31382;50.200;8.674;2022-08-19T03:27:17;20.80;99.90
45323;DHT22;31382;50.200;8.674;2022-08-19T03:32:19;20.70;99.90
45323;DHT22;31382;50.200;8.674;2022-08-19T03:37:33;20.70;99.90
45323;DHT22;31382;50.200;8.674;2022-08-19T03:42:36;20.70;99.90
45323;DHT22;31382;50.200;8.674;2022-08-19T03:47:58;20.60;99.90
45323;DHT22;31382;50.200;8.674;2022-08-19T03:53:00;20.60;99.90
45323;DHT22;31382;50.200;8.674;2022-08-19T03:58:02;20.50;99.90
45323;DHT22;31382;50.200;8.674;2022-08-19T04:03:04;20.50;99.90
45323;DHT22;31382;50.200;8.674;2022-08-19T04:08:05;20.50;99.90
45323;DHT22;31382;50.200;8.674;2022-08-19T04:13:15;20.40;99.90
45323;DHT22;31382;50.200;8.674;2022-08-19T04:18:17;20.30;99.90
45323;DHT22;31382;50.200;8.674;2022-08-19T04:23:18;20.30;99.90
45323;DHT22;31382;50.200;8.674;2022-08-19T04:28:21;20.30;99.90
45323;DHT22;31382;50.200;8.674;2022-08-19T04:33:24;20.20;99.90
45323;DHT22;31382;50.200;8.674;2022-08-19T04:38:29;20.20;99.90
45323;DHT22;31382;50.200;8.674;2022-08-19T04:43:31;20.10;99.90
45323;DHT22;31382;50.200;8.674;2022-08-19T04:48:34;20.10;99.90
45323;DHT22;31382;50.200;8.674;2022-08-19T04:53:43;20.20;99.90
45323;DHT22;31382;50.200;8.674;2022-08-19T04:58:45;20.20;99.90
45323;DHT22;31382;50.200;8.674;2022-08-19T05:03:47;20.20;99.90
45323;DHT22;31382;50.200;8.674;2022-08-19T05:08:49;20.20;99.90
45323;DHT22;31382;50.200;8.674;2022-08-19T05:13:51;20.30;99.90
45323;DHT22;31382;50.200;8.674;2022-08-19T05:18:54;20.30;99.90
45323;DHT22;31382;50.200;8.674;2022-08-19T05:24:15;20.30;99.90
45323;DHT22;31382;50.200;8.674;2022-08-19T05:29:21;20.40;99.90
45323;DHT22;31382;50.200;8.674;2022-08-19T05:34:24;20.60;99.90
45323;DHT22;31382;50.200;8.674;2022-08-19T05:39:29;20.60;99.90
45323;DHT22;31382;50.200;8.674;2022-08-19T05:44:34;20.70;99.90
45323;DHT22;31382;50.200;8.674;2022-08-19T05:49:36;20.90;99.90
45323;DHT22;31382;50.200;8.674;2022-08-19T05:54:39;20.90;99.90
45323;DHT22;31382;50.200;8.674;2022-08-19T05:59:44;21.00;99.90
45323;DHT22;31382;50.200;8.674;2022-08-19T06:04:47;21.10;99.90
45323;DHT22;31382;50.200;8.674;2022-08-19T06:09:49;21.20;99.90
45323;DHT22;31382;50.200;8.674;2022-08-19T06:15:08;21.30;99.90
45323;DHT22;31382;50.200;8.674;2022-08-19T06:20:13;21.40;99.90
45323;DHT22;31382;50.200;8.674;2022-08-19T06:25:16;21.40;99.90
45323;DHT22;31382;50.200;8.674;2022-08-19T06:30:18;21.40;99.90
45323;DHT22;31382;50.200;8.674;2022-08-19T06:35:20;21.50;99.90
45323;DHT22;31382;50.200;8.674;2022-08-19T06:40:22;21.50;99.90
45323;DHT22;31382;50.200;8.674;2022-08-19T06:45:25;21.50;99.90
45323;DHT22;31382;50.200;8.674;2022-08-19T06:50:39;21.70;99.90
45323;DHT22;31382;50.200;8.674;2022-08-19T06:55:41;21.80;99.90
45323;DHT22;31382;50.200;8.674;2022-08-19T07:00:43;21.80;99.90
45323;DHT22;31382;50.200;8.674;2022-08-19T07:05:45;22.00;99.90
45323;DHT22;31382;50.200;8.674;2022-08-19T07:10:46;22.10;99.90
45323;DHT22;31382;50.200;8.674;2022-08-19T07:15:49;22.30;99.90
45323;DHT22;31382;50.200;8.674;2022-08-19T07:21:03;22.50;99.90
45323;DHT22;31382;50.200;8.674;2022-08-19T07:26:10;22.60;99.90
45323;DHT22;31382;50.200;8.674;2022-08-19T07:31:15;22.70;99.90
45323;DHT22;31382;50.200;8.674;2022-08-19T07:36:27;22.80;99.90
45323;DHT22;31382;50.200;8.674;2022-08-19T07:41:34;22.90;99.90
45323;DHT22;31382;50.200;8.674;2022-08-19T07:46:45;23.10;99.90
45323;DHT22;31382;50.200;8.674;2022-08-19T07:51:55;23.20;99.90
45323;DHT22;31382;50.200;8.674;2022-08-19T07:56:57;23.30;99.90
45323;DHT22;31382;50.200;8.674;2022-08-19T08:02:00;23.40;99.90
45323;DHT22;31382;50.200;8.674;2022-08-19T08:07:02;23.60;99.90
45323;DHT22;31382;50.200;8.674;2022-08-19T08:12:27;23.80;99.90
45323;DHT22;31382;50.200;8.674;2022-08-19T08:17:35;24.00;99.90
45323;DHT22;31382;50.200;8.674;2022-08-19T08:22:52;24.00;99.90
45323;DHT22;31382;50.200;8.674;2022-08-19T08:28:12;24.20;99.90
45323;DHT22;31382;50.200;8.674;2022-08-19T08:33:20;24.30;99.90
45323;DHT22;31382;50.200;8.674;2022-08-19T08:38:34;24.40;99.90
45323;DHT22;31382;50.200;8.674;2022-08-19T08:43:45;24.60;99.90
45323;DHT22;31382;50.200;8.674;2022-08-19T08:48:57;24.90;99.90
45323;DHT22;31382;50.200;8.674;2022-08-19T08:54:05;25.00;99.90
45323;DHT22;31382;50.200;8.674;2022-08-19T08:59:19;25.40;99.90
45323;DHT22;31382;50.200;8.674;2022-08-19T09:04:21;25.70;99.90
45323;DHT22;31382;50.200;8.674;2022-08-19T09:09:34;25.60;99.90
45323;DHT22;31382;50.200;8.674;2022-08-19T09:14:58;25.70;99.90
45323;DHT22;31382;50.200;8.674;2022-08-19T09:20:15;25.90;99.90
45323;DHT22;31382;50.200;8.674;2022-08-19T09:25:21;25.80;99.90
45323;DHT22;31382;50.200;8.674;2022-08-19T09:30:29;25.20;99.90
45323;DHT22;31382;50.200;8.674;2022-08-19T09:35:32;25.20;99.90
45323;DHT22;31382;50.200;8.674;2022-08-19T09:40:53;25.30;99.90
45323;DHT22;31382;50.200;8.674;2022-08-19T09:45:56;25.60;99.90
45323;DHT22;31382;50.200;8.674;2022-08-19T09:51:06;25.80;99.90
45323;DHT22;31382;50.200;8.674;2022-08-19T09:56:13;26.10;99.90
45323;DHT22;31382;50.200;8.674;2022-08-19T10:01:27;26.00;99.90
45323;DHT22;31382;50.200;8.674;2022-08-19T10:06:29;25.90;99.90
45323;DHT22;31382;50.200;8.674;2022-08-19T10:11:47;25.90;99.90
45323;DHT22;31382;50.200;8.674;2022-08-19T10:16:55;26.40;99.90
45323;DHT22;31382;50.200;8.674;2022-08-19T10:22:03;26.90;99.90
45323;DHT22;31382;50.200;8.674;2022-08-19T10:27:10;27.20;99.90
45323;DHT22;31382;50.200;8.674;2022-08-19T10:32:16;27.10;99.90
45323;DHT22;31382;50.200;8.674;2022-08-19T10:37:18;26.80;99.90
45323;DHT22;31382;50.200;8.674;2022-08-19T10:42:29;26.80;99.90
45323;DHT22;31382;50.200;8.674;2022-08-19T10:47:33;26.80;99.90
45323;DHT22;31382;50.200;8.674;2022-08-19T10:52:35;26.60;99.90
45323;DHT22;31382;50.200;8.674;2022-08-19T10:57:39;26.80;99.90
45323;DHT22;31382;50.200;8.674;2022-08-19T11:03:01;27.00;99.90
45323;DHT22;31382;50.200;8.674;2022-08-19T11:08:03;27.00;99.90
45323;DHT22;31382;50.200;8.674;2022-08-19T11:13:24;27.40;99.90
45323;DHT22;31382;50.200;8.674;2022-08-19T11:18:26;27.70;99.80
45323;DHT22;31382;50.200;8.674;2022-08-19T11:23:28;27.80;98.90
45323;DHT22;31382;50.200;8.674;2022-08-19T11:28:29;27.30;99.30
45323;DHT22;31382;50.200;8.674;2022-08-19T11:33:31;27.50;98.60
45323;DHT22;31382;50.200;8.674;2022-08-19T11:38:34;27.70;97.90
45323;DHT22;31382;50.200;8.674;2022-08-19T11:43:37;28.00;97.90
45323;DHT22;31382;50.200;8.674;2022-08-19T11:48:39;27.70;97.30
45323;DHT22;31382;50.200;8.674;2022-08-19T11:53:41;28.00;97.20
45323;DHT22;31382;50.200;8.674;2022-08-19T11:58:43;27.90;96.50
45323;DHT22;31382;50.200;8.674;2022-08-19T12:03:47;28.50;96.70
45323;DHT22;31382;50.200;8.674;2022-08-19T12:08:50;29.10;94.40
45323;DHT22;31382;50.200;8.674;2022-08-19T12:13:52;29.40;93.90
45323;DHT22;31382;50.200;8.674;2022-08-19T12:18:55;29.50;91.90
45323;DHT22;31382;50.200;8.674;2022-08-19T12:23:59;29.30;92.40
45323;DHT22;31382;50.200;8.674;2022-08-19T12:29:01;29.60;92.10
45323;DHT22;31382;50.200;8.674;2022-08-19T12:34:03;29.50;90.90
45323;DHT22;31382;50.200;8.674;2022-08-19T12:39:04;29.80;91.30
45323;DHT22;31382;50.200;8.674;2022-08-19T12:44:11;29.60;90.90
45323;DHT22;31382;50.200;8.674;2022-08-19T12:49:15;29.50;90.40
45323;DHT22;31382;50.200;8.674;2022-08-19T12:54:37;29.70;90.70
45323;DHT22;31382;50.200;8.674;2022-08-19T12:59:39;30.10;90.00
45323;DHT22;31382;50.200;8.674;2022-08-19T13:04:40;30.20;86.70
45323;DHT22;31382;50.200;8.674;2022-08-19T13:09:42;30.60;85.90
45323;DHT22;31382;50.200;8.674;2022-08-19T13:14:44;31.00;85.30
45323;DHT22;31382;50.200;8.674;2022-08-19T13:19:52;30.70;83.00
45323;DHT22;31382;50.200;8.674;2022-08-19T13:24:54;30.30;83.70
45323;DHT22;31382;50.200;8.674;2022-08-19T13:29:55;29.90;84.00
45323;DHT22;31382;50.200;8.674;2022-08-19T13:35:16;29.30;85.70
45323;DHT22;31382;50.200;8.674;2022-08-19T13:40:21;29.10;86.30
45323;DHT22;31382;50.200;8.674;2022-08-19T13:45:26;29.50;85.40
45323;DHT22;31382;50.200;8.674;2022-08-19T13:50:29;29.80;85.00
45323;DHT22;31382;50.200;8.674;2022-08-19T13:55:33;30.50;82.50
45323;DHT22;31382;50.200;8.674;2022-08-19T14:00:37;30.20;80.50
45323;DHT22;31382;50.200;8.674;2022-08-19T14:05:39;30.30;80.60
45323;DHT22;31382;50.200;8.674;2022-08-19T14:10:41;31.10;79.10
45323;DHT22;31382;50.200;8.674;2022-08-19T14:15:45;31.90;77.00
45323;DHT22;31382;50.200;8.674;2022-08-19T14:20:48;31.70;76.90
45323;DHT22;31382;50.200;8.674;2022-08-19T14:25:50;31.40;77.30
45323;DHT22;31382;50.200;8.674;2022-08-19T14:30:52;30.80;78.10
45323;DHT22;31382;50.200;8.674;2022-08-19T14:35:57;30.00;78.50
45323;DHT22;31382;50.200;8.674;2022-08-19T14:46:09;30.40;76.60
45323;DHT22;31382;50.200;8.674;2022-08-19T14:51:12;30.30;76.30
45323;DHT22;31382;50.200;8.674;2022-08-19T14:56:16;30.50;76.60
45323;DHT22;31382;50.200;8.674;2022-08-19T15:01:20;30.70;75.80
45323;DHT22;31382;50.200;8.674;2022-08-19T15:06:23;31.00;75.30
45323;DHT22;31382;50.200;8.674;2022-08-19T15:11:27;31.20;75.00
45323;DHT22;31382;50.200;8.674;2022-08-19T15:16:29;31.30;74.40
45323;DHT22;31382;50.200;8.674;2022-08-19T15:21:30;31.30;74.40
45323;DHT22;31382;50.200;8.674;2022-08-19T15:26:32;31.70;72.80
45323;DHT22;31382;50.200;8.674;2022-08-19T15:31:34;31.10;72.60
45323;DHT22;31382;50.200;8.674;2022-08-19T15:36:39;30.80;73.40
45323;DHT22;31382;50.200;8.674;2022-08-19T15:41:41;30.60;73.50
45323;DHT22;31382;50.200;8.674;2022-08-19T15:46:47;30.40;74.10
45323;DHT22;31382;50.200;8.674;2022-08-19T15:51:49;30.40;73.70
45323;DHT22;31382;50.200;8.674;2022-08-19T15:56:54;30.10;73.90
45323;DHT22;31382;50.200;8.674;2022-08-19T16:02:16;30.20;72.90
45323;DHT22;31382;50.200;8.674;2022-08-19T16:07:37;30.40;73.30
45323;DHT22;31382;50.200;8.674;2022-08-19T16:12:39;30.50;72.70
45323;DHT22;31382;50.200;8.674;2022-08-19T16:17:42;30.60;73.30
45323;DHT22;31382;50.200;8.674;2022-08-19T16:22:56;30.80;72.20
45323;DHT22;31382;50.200;8.674;2022-08-19T16:27:59;30.30;72.70
45323;DHT22;31382;50.200;8.674;2022-08-19T16:33:09;30.20;73.00
45323;DHT22;31382;50.200;8.674;2022-08-19T16:38:11;30.40;73.70
45323;DHT22;31382;50.200;8.674;2022-08-19T16:43:13;30.50;73.90
45323;DHT22;31382;50.200;8.674;2022-08-19T16:48:14;30.20;72.90
45323;DHT22;31382;50.200;8.674;2022-08-19T16:53:18;30.40;72.70
45323;DHT22;31382;50.200;8.674;2022-08-19T16:58:21;30.30;73.10
45323;DHT22;31382;50.200;8.674;2022-08-19T17:03:29;30.30;72.80
45323;DHT22;31382;50.200;8.674;2022-08-19T17:08:37;30.00;72.90
45323;DHT22;31382;50.200;8.674;2022-08-19T17:13:39;30.00;72.80
45323;DHT22;31382;50.200;8.674;2022-08-19T17:18:43;29.90;72.80
45323;DHT22;31382;50.200;8.674;2022-08-19T17:23:45;29.40;73.30
45323;DHT22;31382;50.200;8.674;2022-08-19T17:28:50;29.60;72.90
45323;DHT22;31382;50.200;8.674;2022-08-19T17:33:52;29.40;73.10
45323;DHT22;31382;50.200;8.674;2022-08-19T17:38:57;29.30;73.10
45323;DHT22;31382;50.200;8.674;2022-08-19T17:44:00;29.00;73.50
45323;DHT22;31382;50.200;8.674;2022-08-19T17:49:02;28.80;74.90
45323;DHT22;31382;50.200;8.674;2022-08-19T17:54:04;28.70;75.60
45323;DHT22;31382;50.200;8.674;2022-08-19T17:59:07;28.30;75.80
45323;DHT22;31382;50.200;8.674;2022-08-19T18:04:15;28.30;76.30
45323;DHT22;31382;50.200;8.674;2022-08-19T18:09:17;28.20;76.60
45323;DHT22;31382;50.200;8.674;2022-08-19T18:14:23;28.00;77.30
45323;DHT22;31382;50.200;8.674;2022-08-19T18:19:39;27.90;77.80
45323;DHT22;31382;50.200;8.674;2022-08-19T18:24:43;27.70;78.20
45323;DHT22;31382;50.200;8.674;2022-08-19T18:29:46;27.50;78.70
45323;DHT22;31382;50.200;8.674;2022-08-19T18:34:48;27.30;79.20
45323;DHT22;31382;50.200;8.674;2022-08-19T18:39:50;27.20;79.70
45323;DHT22;31382;50.200;8.674;2022-08-19T18:45:10;27.00;80.90
45323;DHT22;31382;50.200;8.674;2022-08-19T18:50:31;26.90;80.60
45323;DHT22;31382;50.200;8.674;2022-08-19T18:55:33;26.70;81.10
45323;DHT22;31382;50.200;8.674;2022-08-19T19:00:35;26.60;81.50
45323;DHT22;31382;50.200;8.674;2022-08-19T19:05:37;26.40;81.70
45323;DHT22;31382;50.200;8.674;2022-08-19T19:10:40;26.30;82.00
45323;DHT22;31382;50.200;8.674;2022-08-19T19:15:42;26.10;82.40
45323;DHT22;31382;50.200;8.674;2022-08-19T19:20:44;26.00;82.60
45323;DHT22;31382;50.200;8.674;2022-08-19T19:25:46;25.80;83.30
45323;DHT22;31382;50.200;8.674;2022-08-19T19:30:53;25.80;83.70
45323;DHT22;31382;50.200;8.674;2022-08-19T19:35:54;25.60;84.10
45323;DHT22;31382;50.200;8.674;2022-08-19T19:40:56;25.50;84.60
45323;DHT22;31382;50.200;8.674;2022-08-19T19:45:58;25.30;85.40
45323;DHT22;31382;50.200;8.674;2022-08-19T19:51:01;25.20;85.90
45323;DHT22;31382;50.200;8.674;2022-08-19T19:56:04;25.10;86.40
45323;DHT22;31382;50.200;8.674;2022-08-19T20:01:06;25.10;86.90
45323;DHT22;31382;50.200;8.674;2022-08-19T20:06:14;24.90;87.50
45323;DHT22;31382;50.200;8.674;2022-08-19T20:11:31;24.80;87.80
45323;DHT22;31382;50.200;8.674;2022-08-19T20:16:33;24.70;88.50
45323;DHT22;31382;50.200;8.674;2022-08-19T20:21:36;24.70;88.80
45323;DHT22;31382;50.200;8.674;2022-08-19T20:26:45;24.70;89.20
45323;DHT22;31382;50.200;8.674;2022-08-19T20:31:52;24.70;89.60
45323;DHT22;31382;50.200;8.674;2022-08-19T20:37:00;24.50;89.90
45323;DHT22;31382;50.200;8.674;2022-08-19T20:42:01;24.50;90.00
45323;DHT22;31382;50.200;8.674;2022-08-19T20:47:03;24.50;90.20
45323;DHT22;31382;50.200;8.674;2022-08-19T20:52:05;24.40;90.30
45323;DHT22;31382;50.200;8.674;2022-08-19T20:57:07;24.40;90.30
45323;DHT22;31382;50.200;8.674;2022-08-19T21:02:09;24.30;90.50
45323;DHT22;31382;50.200;8.674;2022-08-19T21:07:11;24.20;90.60
45323;DHT22;31382;50.200;8.674;2022-08-19T21:12:13;24.20;90.90
45323;DHT22;31382;50.200;8.674;2022-08-19T21:17:14;24.10;91.20
45323;DHT22;31382;50.200;8.674;2022-08-19T21:22:17;24.00;91.50
45323;DHT22;31382;50.200;8.674;2022-08-19T21:27:18;24.00;91.80
45323;DHT22;31382;50.200;8.674;2022-08-19T21:32:20;23.80;92.10
45323;DHT22;31382;50.200;8.674;2022-08-19T21:37:24;23.80;92.40
45323;DHT22;31382;50.200;8.674;2022-08-19T21:42:26;23.70;92.80
45323;DHT22;31382;50.200;8.674;2022-08-19T21:47:28;23.60;93.20
45323;DHT22;31382;50.200;8.674;2022-08-19T21:52:30;23.50;93.60
45323;DHT22;31382;50.200;8.674;2022-08-19T21:57:31;23.40;94.00
45323;DHT22;31382;50.200;8.674;2022-08-19T22:02:33;23.40;94.40
45323;DHT22;31382;50.200;8.674;2022-08-19T22:07:35;23.30;94.90
45323;DHT22;31382;50.200;8.674;2022-08-19T22:12:38;23.20;95.30
45323;DHT22;31382;50.200;8.674;2022-08-19T22:17:52;23.20;95.60
45323;DHT22;31382;50.200;8.674;2022-08-19T22:22:58;23.10;96.00
45323;DHT22;31382;50.200;8.674;2022-08-19T22:28:02;23.10;96.40
45323;DHT22;31382;50.200;8.674;2022-08-19T22:33:07;23.10;96.80
45323;DHT22;31382;50.200;8.674;2022-08-19T22:38:10;23.00;97.00
45323;DHT22;31382;50.200;8.674;2022-08-19T22:43:16;23.00;97.80
45323;DHT22;31382;50.200;8.674;2022-08-19T22:48:22;22.90;98.30
45323;DHT22;31382;50.200;8.674;2022-08-19T22:53:25;22.90;98.50
45323;DHT22;31382;50.200;8.674;2022-08-19T22:58:27;22.90;99.10
45323;DHT22;31382;50.200;8.674;2022-08-19T23:03:30;22.80;99.50
45323;DHT22;31382;50.200;8.674;2022-08-19T23:08:31;22.80;99.90
45323;DHT22;31382;50.200;8.674;2022-08-19T23:13:33;22.70;99.90
45323;DHT22;31382;50.200;8.674;2022-08-19T23:18:35;22.70;99.90
45323;DHT22;31382;50.200;8.674;2022-08-19T23:23:38;22.70;99.90
45323;DHT22;31382;50.200;8.674;2022-08-19T23:28:39;22.60;99.90
45323;DHT22;31382;50.200;8.674;2022-08-19T23:34:00;22.50;99.90
45323;DHT22;31382;50.200;8.674;2022-08-19T23:39:02;22.40;99.90
45323;DHT22;31382;50.200;8.674;2022-08-19T23:44:04;22.40;99.90
45323;DHT22;31382;50.200;8.674;2022-08-19T23:49:15;22.30;99.90
45323;DHT22;31382;50.200;8.674;2022-08-19T23:54:16;22.30;99.90
45323;DHT22;31382;50.200;8.674;2022-08-19T23:59:18;22.20;99.90
